sensor_id;sensor_type;location;lat;lon;timestamp;P1;durP1;ratioP1;P2;durP2;ratioP2
59093;SDS011;44880;52.814;18.270;2023-07-31T00:01:57;7.60;;;2.00;;
59093;SDS011;44880;52.814;18.270;2023-07-31T00:04:29;8.60;;;2.30;;
59093;SDS011;44880;52.814;18.270;2023-07-31T00:07:00;7.60;;;2.30;;
59093;SDS011;44880;52.814;18.270;2023-07-31T00:09:34;7.30;;;2.00;;
59093;SDS011;44880;52.814;18.270;2023-07-31T00:12:06;7.00;;;2.30;;
59093;SDS011;44880;52.814;18.270;2023-07-31T00:14:39;7.20;;;1.80;;
59093;SDS011;44880;52.814;18.270;2023-07-31T00:17:10;7.40;;;1.60;;
59093;SDS011;44880;52.814;18.270;2023-07-31T00:19:43;6.40;;;1.90;;
59093;SDS011;44880;52.814;18.270;2023-07-31T00:22:17;6.10;;;2.00;;
59093;SDS011;44880;52.814;18.270;2023-07-31T00:24:50;7.20;;;2.30;;
59093;SDS011;44880;52.814;18.270;2023-07-31T00:27:22;6.70;;;2.30;;
59093;SDS011;44880;52.814;18.270;2023-07-31T00:29:54;7.00;;;2.40;;
59093;SDS011;44880;52.814;18.270;2023-07-31T00:32:25;7.00;;;2.40;;
59093;SDS011;44880;52.814;18.270;2023-07-31T00:34:57;7.30;;;2.00;;
59093;SDS011;44880;52.814;18.270;2023-07-31T00:37:28;7.20;;;2.30;;
59093;SDS011;44880;52.814;18.270;2023-07-31T00:40:00;6.70;;;2.20;;
59093;SDS011;44880;52.814;18.270;2023-07-31T00:42:32;7.10;;;2.30;;
59093;SDS011;44880;52.814;18.270;2023-07-31T00:45:05;6.40;;;2.20;;
59093;SDS011;44880;52.814;18.270;2023-07-31T00:47:38;7.00;;;2.30;;
59093;SDS011;44880;52.814;18.270;2023-07-31T00:52:40;6.50;;;2.10;;
59093;SDS011;44880;52.814;18.270;2023-07-31T00:55:12;7.60;;;2.30;;
59093;SDS011;44880;52.814;18.270;2023-07-31T00:57:48;6.70;;;2.40;;
59093;SDS011;44880;52.814;18.270;2023-07-31T01:00:23;7.40;;;2.40;;
59093;SDS011;44880;52.814;18.270;2023-07-31T01:02:55;8.70;;;2.90;;
59093;SDS011;44880;52.814;18.270;2023-07-31T01:05:29;8.80;;;2.70;;
59093;SDS011;44880;52.814;18.270;2023-07-31T01:08:08;7.20;;;2.80;;
59093;SDS011;44880;52.814;18.270;2023-07-31T01:10:47;7.40;;;2.40;;
59093;SDS011;44880;52.814;18.270;2023-07-31T01:13:21;8.40;;;2.80;;
59093;SDS011;44880;52.814;18.270;2023-07-31T01:15:55;7.30;;;2.50;;
59093;SDS011;44880;52.814;18.270;2023-07-31T01:18:32;8.50;;;3.10;;
59093;SDS011;44880;52.814;18.270;2023-07-31T01:21:06;9.00;;;3.10;;
59093;SDS011;44880;52.814;18.270;2023-07-31T01:24:13;7.60;;;2.70;;
59093;SDS011;44880;52.814;18.270;2023-07-31T01:26:55;8.30;;;3.10;;
59093;SDS011;44880;52.814;18.270;2023-07-31T01:29:32;7.60;;;3.20;;
59093;SDS011;44880;52.814;18.270;2023-07-31T01:32:07;8.80;;;3.30;;
59093;SDS011;44880;52.814;18.270;2023-07-31T01:34:40;7.70;;;2.80;;
59093;SDS011;44880;52.814;18.270;2023-07-31T01:37:13;7.80;;;3.30;;
59093;SDS011;44880;52.814;18.270;2023-07-31T01:39:45;9.10;;;3.40;;
59093;SDS011;44880;52.814;18.270;2023-07-31T01:42:17;10.40;;;3.30;;
59093;SDS011;44880;52.814;18.270;2023-07-31T01:44:49;9.50;;;3.10;;
59093;SDS011;44880;52.814;18.270;2023-07-31T01:47:21;8.10;;;2.80;;
59093;SDS011;44880;52.814;18.270;2023-07-31T01:49:54;9.80;;;3.20;;
59093;SDS011;44880;52.814;18.270;2023-07-31T01:54:56;8.40;;;3.30;;
59093;SDS011;44880;52.814;18.270;2023-07-31T01:57:28;8.70;;;3.20;;
59093;SDS011;44880;52.814;18.270;2023-07-31T02:00:00;8.90;;;3.30;;
59093;SDS011;44880;52.814;18.270;2023-07-31T02:02:40;9.10;;;3.30;;
59093;SDS011;44880;52.814;18.270;2023-07-31T02:05:12;6.90;;;2.70;;
59093;SDS011;44880;52.814;18.270;2023-07-31T02:07:43;11.30;;;2.70;;
59093;SDS011;44880;52.814;18.270;2023-07-31T02:10:15;7.90;;;2.80;;
59093;SDS011;44880;52.814;18.270;2023-07-31T02:12:47;9.10;;;3.00;;
59093;SDS011;44880;52.814;18.270;2023-07-31T02:15:19;7.40;;;2.90;;
59093;SDS011;44880;52.814;18.270;2023-07-31T02:17:50;7.80;;;3.20;;
59093;SDS011;44880;52.814;18.270;2023-07-31T02:22:52;8.90;;;3.00;;
59093;SDS011;44880;52.814;18.270;2023-07-31T02:25:24;9.80;;;3.00;;
59093;SDS011;44880;52.814;18.270;2023-07-31T02:27:56;8.70;;;3.20;;
59093;SDS011;44880;52.814;18.270;2023-07-31T02:30:27;9.80;;;3.50;;
59093;SDS011;44880;52.814;18.270;2023-07-31T02:32:59;9.80;;;3.20;;
59093;SDS011;44880;52.814;18.270;2023-07-31T02:35:31;10.10;;;3.50;;
59093;SDS011;44880;52.814;18.270;2023-07-31T02:38:02;7.70;;;3.00;;
59093;SDS011;44880;52.814;18.270;2023-07-31T02:40:35;8.20;;;3.30;;
59093;SDS011;44880;52.814;18.270;2023-07-31T02:43:06;9.90;;;3.50;;
59093;SDS011;44880;52.814;18.270;2023-07-31T02:45:38;9.20;;;3.50;;
59093;SDS011;44880;52.814;18.270;2023-07-31T02:48:10;7.70;;;3.40;;
59093;SDS011;44880;52.814;18.270;2023-07-31T02:50:42;8.60;;;3.40;;
59093;SDS011;44880;52.814;18.270;2023-07-31T02:53:13;9.40;;;3.50;;
59093;SDS011;44880;52.814;18.270;2023-07-31T02:55:45;8.60;;;3.10;;
59093;SDS011;44880;52.814;18.270;2023-07-31T02:58:17;8.50;;;3.40;;
59093;SDS011;44880;52.814;18.270;2023-07-31T03:00:48;9.80;;;3.30;;
59093;SDS011;44880;52.814;18.270;2023-07-31T03:03:20;8.30;;;3.60;;
59093;SDS011;44880;52.814;18.270;2023-07-31T03:05:52;9.50;;;3.60;;
59093;SDS011;44880;52.814;18.270;2023-07-31T03:08:24;8.90;;;4.60;;
59093;SDS011;44880;52.814;18.270;2023-07-31T03:10:56;9.80;;;4.30;;
59093;SDS011;44880;52.814;18.270;2023-07-31T03:15:58;9.10;;;3.80;;
59093;SDS011;44880;52.814;18.270;2023-07-31T03:18:30;11.10;;;3.90;;
59093;SDS011;44880;52.814;18.270;2023-07-31T03:21:02;9.40;;;3.80;;
59093;SDS011;44880;52.814;18.270;2023-07-31T03:23:35;8.70;;;3.80;;
59093;SDS011;44880;52.814;18.270;2023-07-31T03:26:07;10.80;;;4.20;;
59093;SDS011;44880;52.814;18.270;2023-07-31T03:28:39;10.80;;;3.90;;
59093;SDS011;44880;52.814;18.270;2023-07-31T03:31:11;9.00;;;3.60;;
59093;SDS011;44880;52.814;18.270;2023-07-31T03:33:42;8.80;;;3.40;;
59093;SDS011;44880;52.814;18.270;2023-07-31T03:36:14;9.10;;;3.70;;
59093;SDS011;44880;52.814;18.270;2023-07-31T03:38:46;8.30;;;3.40;;
59093;SDS011;44880;52.814;18.270;2023-07-31T03:41:18;8.10;;;3.90;;
59093;SDS011;44880;52.814;18.270;2023-07-31T03:43:50;9.70;;;4.20;;
59093;SDS011;44880;52.814;18.270;2023-07-31T03:46:24;12.40;;;4.60;;
59093;SDS011;44880;52.814;18.270;2023-07-31T03:48:56;8.50;;;4.00;;
59093;SDS011;44880;52.814;18.270;2023-07-31T03:51:27;8.30;;;3.80;;
59093;SDS011;44880;52.814;18.270;2023-07-31T03:53:59;10.40;;;3.90;;
59093;SDS011;44880;52.814;18.270;2023-07-31T03:56:31;8.30;;;3.80;;
59093;SDS011;44880;52.814;18.270;2023-07-31T03:59:05;8.90;;;3.40;;
59093;SDS011;44880;52.814;18.270;2023-07-31T04:01:37;11.00;;;4.10;;
59093;SDS011;44880;52.814;18.270;2023-07-31T04:04:08;9.20;;;3.90;;
59093;SDS011;44880;52.814;18.270;2023-07-31T04:06:40;9.20;;;4.10;;
59093;SDS011;44880;52.814;18.270;2023-07-31T04:09:12;8.80;;;3.50;;
59093;SDS011;44880;52.814;18.270;2023-07-31T04:11:47;11.40;;;3.70;;
59093;SDS011;44880;52.814;18.270;2023-07-31T04:14:21;7.10;;;3.00;;
59093;SDS011;44880;52.814;18.270;2023-07-31T04:16:52;8.50;;;3.40;;
59093;SDS011;44880;52.814;18.270;2023-07-31T04:21:54;8.60;;;3.30;;
59093;SDS011;44880;52.814;18.270;2023-07-31T04:24:26;9.60;;;3.70;;
59093;SDS011;44880;52.814;18.270;2023-07-31T04:26:58;8.10;;;3.60;;
59093;SDS011;44880;52.814;18.270;2023-07-31T04:29:30;8.30;;;3.70;;
59093;SDS011;44880;52.814;18.270;2023-07-31T04:32:04;8.20;;;3.70;;
59093;SDS011;44880;52.814;18.270;2023-07-31T04:34:36;8.40;;;3.40;;
59093;SDS011;44880;52.814;18.270;2023-07-31T04:37:08;7.70;;;3.70;;
59093;SDS011;44880;52.814;18.270;2023-07-31T04:39:40;8.70;;;3.70;;
59093;SDS011;44880;52.814;18.270;2023-07-31T04:42:13;8.70;;;4.10;;
59093;SDS011;44880;52.814;18.270;2023-07-31T04:44:47;16.90;;;7.50;;
59093;SDS011;44880;52.814;18.270;2023-07-31T04:47:19;15.50;;;7.20;;
59093;SDS011;44880;52.814;18.270;2023-07-31T04:49:51;13.50;;;4.90;;
59093;SDS011;44880;52.814;18.270;2023-07-31T04:52:23;12.00;;;4.80;;
59093;SDS011;44880;52.814;18.270;2023-07-31T04:54:56;10.60;;;4.40;;
59093;SDS011;44880;52.814;18.270;2023-07-31T04:57:29;10.30;;;4.20;;
59093;SDS011;44880;52.814;18.270;2023-07-31T05:00:01;10.00;;;3.60;;
59093;SDS011;44880;52.814;18.270;2023-07-31T05:02:35;8.50;;;3.50;;
59093;SDS011;44880;52.814;18.270;2023-07-31T05:05:07;8.80;;;3.60;;
59093;SDS011;44880;52.814;18.270;2023-07-31T05:07:40;10.10;;;3.80;;
59093;SDS011;44880;52.814;18.270;2023-07-31T05:10:12;8.90;;;3.40;;
59093;SDS011;44880;52.814;18.270;2023-07-31T05:12:45;10.50;;;3.60;;
59093;SDS011;44880;52.814;18.270;2023-07-31T05:15:17;7.70;;;3.30;;
59093;SDS011;44880;52.814;18.270;2023-07-31T05:17:50;7.90;;;3.80;;
59093;SDS011;44880;52.814;18.270;2023-07-31T05:20:21;8.50;;;3.60;;
59093;SDS011;44880;52.814;18.270;2023-07-31T05:22:54;8.60;;;3.40;;
59093;SDS011;44880;52.814;18.270;2023-07-31T05:25:26;9.40;;;3.90;;
59093;SDS011;44880;52.814;18.270;2023-07-31T05:27:57;8.20;;;2.70;;
59093;SDS011;44880;52.814;18.270;2023-07-31T05:30:30;7.50;;;2.80;;
59093;SDS011;44880;52.814;18.270;2023-07-31T05:33:02;7.10;;;2.90;;
59093;SDS011;44880;52.814;18.270;2023-07-31T05:35:34;8.30;;;3.00;;
59093;SDS011;44880;52.814;18.270;2023-07-31T05:38:06;9.00;;;3.30;;
59093;SDS011;44880;52.814;18.270;2023-07-31T05:40:38;8.40;;;3.20;;
59093;SDS011;44880;52.814;18.270;2023-07-31T05:43:10;8.50;;;2.80;;
59093;SDS011;44880;52.814;18.270;2023-07-31T05:45:42;8.10;;;2.80;;
59093;SDS011;44880;52.814;18.270;2023-07-31T05:48:14;8.20;;;2.90;;
59093;SDS011;44880;52.814;18.270;2023-07-31T05:50:46;7.30;;;3.20;;
59093;SDS011;44880;52.814;18.270;2023-07-31T05:53:17;7.40;;;2.80;;
59093;SDS011;44880;52.814;18.270;2023-07-31T05:55:49;8.40;;;2.90;;
59093;SDS011;44880;52.814;18.270;2023-07-31T05:58:21;7.80;;;2.90;;
59093;SDS011;44880;52.814;18.270;2023-07-31T06:00:52;8.50;;;3.30;;
59093;SDS011;44880;52.814;18.270;2023-07-31T06:03:24;8.00;;;3.40;;
59093;SDS011;44880;52.814;18.270;2023-07-31T06:05:56;7.80;;;2.60;;
59093;SDS011;44880;52.814;18.270;2023-07-31T06:08:28;8.70;;;3.10;;
59093;SDS011;44880;52.814;18.270;2023-07-31T06:11:00;8.90;;;3.30;;
59093;SDS011;44880;52.814;18.270;2023-07-31T06:16:02;9.80;;;2.90;;
59093;SDS011;44880;52.814;18.270;2023-07-31T06:18:35;8.70;;;3.00;;
59093;SDS011;44880;52.814;18.270;2023-07-31T06:21:06;7.50;;;2.60;;
59093;SDS011;44880;52.814;18.270;2023-07-31T06:26:08;7.70;;;2.80;;
59093;SDS011;44880;52.814;18.270;2023-07-31T06:28:40;8.50;;;2.40;;
59093;SDS011;44880;52.814;18.270;2023-07-31T06:31:13;8.00;;;2.60;;
59093;SDS011;44880;52.814;18.270;2023-07-31T06:33:47;6.60;;;2.30;;
59093;SDS011;44880;52.814;18.270;2023-07-31T06:36:19;6.80;;;2.70;;
59093;SDS011;44880;52.814;18.270;2023-07-31T06:38:51;7.40;;;2.70;;
59093;SDS011;44880;52.814;18.270;2023-07-31T06:43:56;8.70;;;3.50;;
59093;SDS011;44880;52.814;18.270;2023-07-31T06:46:28;10.10;;;2.80;;
59093;SDS011;44880;52.814;18.270;2023-07-31T06:49:01;7.90;;;2.70;;
59093;SDS011;44880;52.814;18.270;2023-07-31T06:51:34;8.20;;;2.40;;
59093;SDS011;44880;52.814;18.270;2023-07-31T06:54:07;6.80;;;2.20;;
59093;SDS011;44880;52.814;18.270;2023-07-31T06:56:39;7.60;;;2.50;;
59093;SDS011;44880;52.814;18.270;2023-07-31T07:01:41;8.50;;;2.60;;
59093;SDS011;44880;52.814;18.270;2023-07-31T07:06:43;7.00;;;2.10;;
59093;SDS011;44880;52.814;18.270;2023-07-31T07:11:45;6.90;;;1.90;;
59093;SDS011;44880;52.814;18.270;2023-07-31T07:14:17;7.40;;;1.80;;
59093;SDS011;44880;52.814;18.270;2023-07-31T07:16:51;6.70;;;1.90;;
59093;SDS011;44880;52.814;18.270;2023-07-31T07:19:26;7.60;;;2.00;;
59093;SDS011;44880;52.814;18.270;2023-07-31T07:21:58;7.00;;;2.30;;
59093;SDS011;44880;52.814;18.270;2023-07-31T07:24:30;11.00;;;2.20;;
59093;SDS011;44880;52.814;18.270;2023-07-31T07:27:02;7.20;;;1.80;;
59093;SDS011;44880;52.814;18.270;2023-07-31T07:29:35;7.60;;;1.80;;
59093;SDS011;44880;52.814;18.270;2023-07-31T07:32:07;7.40;;;1.80;;
59093;SDS011;44880;52.814;18.270;2023-07-31T07:34:40;8.00;;;2.00;;
59093;SDS011;44880;52.814;18.270;2023-07-31T07:37:12;7.10;;;1.90;;
59093;SDS011;44880;52.814;18.270;2023-07-31T07:39:44;7.40;;;1.70;;
59093;SDS011;44880;52.814;18.270;2023-07-31T07:42:16;5.90;;;1.70;;
59093;SDS011;44880;52.814;18.270;2023-07-31T07:44:48;6.30;;;1.80;;
59093;SDS011;44880;52.814;18.270;2023-07-31T07:47:20;6.90;;;1.90;;
59093;SDS011;44880;52.814;18.270;2023-07-31T07:52:22;7.90;;;1.90;;
59093;SDS011;44880;52.814;18.270;2023-07-31T07:54:54;7.30;;;2.00;;
59093;SDS011;44880;52.814;18.270;2023-07-31T07:57:26;7.40;;;1.90;;
59093;SDS011;44880;52.814;18.270;2023-07-31T07:59:58;7.70;;;2.10;;
59093;SDS011;44880;52.814;18.270;2023-07-31T08:02:42;7.20;;;1.70;;
59093;SDS011;44880;52.814;18.270;2023-07-31T08:05:14;7.30;;;2.30;;
59093;SDS011;44880;52.814;18.270;2023-07-31T08:07:46;6.50;;;2.20;;
59093;SDS011;44880;52.814;18.270;2023-07-31T08:10:20;6.70;;;1.80;;
59093;SDS011;44880;52.814;18.270;2023-07-31T08:15:21;8.20;;;2.30;;
59093;SDS011;44880;52.814;18.270;2023-07-31T08:17:53;8.90;;;2.10;;
59093;SDS011;44880;52.814;18.270;2023-07-31T08:20:26;8.80;;;2.10;;
59093;SDS011;44880;52.814;18.270;2023-07-31T08:22:57;6.20;;;2.00;;
59093;SDS011;44880;52.814;18.270;2023-07-31T08:27:59;7.60;;;2.40;;
59093;SDS011;44880;52.814;18.270;2023-07-31T08:30:35;6.70;;;1.70;;
59093;SDS011;44880;52.814;18.270;2023-07-31T08:35:36;6.60;;;1.70;;
59093;SDS011;44880;52.814;18.270;2023-07-31T08:38:08;6.20;;;1.90;;
59093;SDS011;44880;52.814;18.270;2023-07-31T08:40:43;6.70;;;2.40;;
59093;SDS011;44880;52.814;18.270;2023-07-31T08:43:15;7.20;;;1.90;;
59093;SDS011;44880;52.814;18.270;2023-07-31T08:45:46;6.20;;;1.90;;
59093;SDS011;44880;52.814;18.270;2023-07-31T08:48:24;7.10;;;2.10;;
59093;SDS011;44880;52.814;18.270;2023-07-31T08:51:00;7.60;;;1.90;;
59093;SDS011;44880;52.814;18.270;2023-07-31T08:53:32;7.10;;;2.30;;
59093;SDS011;44880;52.814;18.270;2023-07-31T08:56:04;6.60;;;1.90;;
59093;SDS011;44880;52.814;18.270;2023-07-31T08:58:37;7.30;;;2.10;;
59093;SDS011;44880;52.814;18.270;2023-07-31T09:01:12;8.10;;;2.20;;
59093;SDS011;44880;52.814;18.270;2023-07-31T09:03:44;7.50;;;2.10;;
59093;SDS011;44880;52.814;18.270;2023-07-31T09:06:17;6.30;;;2.10;;
59093;SDS011;44880;52.814;18.270;2023-07-31T09:09:03;7.20;;;2.10;;
59093;SDS011;44880;52.814;18.270;2023-07-31T09:11:35;7.60;;;2.30;;
59093;SDS011;44880;52.814;18.270;2023-07-31T09:14:08;6.70;;;2.00;;
59093;SDS011;44880;52.814;18.270;2023-07-31T09:16:52;7.80;;;2.00;;
59093;SDS011;44880;52.814;18.270;2023-07-31T09:19:27;6.20;;;1.90;;
59093;SDS011;44880;52.814;18.270;2023-07-31T09:22:02;7.40;;;2.10;;
59093;SDS011;44880;52.814;18.270;2023-07-31T09:24:37;8.30;;;2.00;;
59093;SDS011;44880;52.814;18.270;2023-07-31T09:27:09;7.70;;;2.30;;
59093;SDS011;44880;52.814;18.270;2023-07-31T09:29:41;8.90;;;2.40;;
59093;SDS011;44880;52.814;18.270;2023-07-31T09:32:19;6.90;;;2.20;;
59093;SDS011;44880;52.814;18.270;2023-07-31T09:34:54;7.60;;;2.10;;
59093;SDS011;44880;52.814;18.270;2023-07-31T09:37:26;7.10;;;2.40;;
59093;SDS011;44880;52.814;18.270;2023-07-31T09:40:01;6.10;;;2.10;;
59093;SDS011;44880;52.814;18.270;2023-07-31T09:42:37;7.90;;;2.30;;
59093;SDS011;44880;52.814;18.270;2023-07-31T09:45:10;8.80;;;2.70;;
59093;SDS011;44880;52.814;18.270;2023-07-31T09:47:47;6.80;;;2.20;;
59093;SDS011;44880;52.814;18.270;2023-07-31T09:50:22;7.60;;;2.20;;
59093;SDS011;44880;52.814;18.270;2023-07-31T09:52:58;6.10;;;2.10;;
59093;SDS011;44880;52.814;18.270;2023-07-31T09:55:30;8.00;;;2.30;;
59093;SDS011;44880;52.814;18.270;2023-07-31T09:58:04;6.40;;;2.10;;
59093;SDS011;44880;52.814;18.270;2023-07-31T10:00:40;7.20;;;2.00;;
59093;SDS011;44880;52.814;18.270;2023-07-31T10:03:12;8.40;;;2.40;;
59093;SDS011;44880;52.814;18.270;2023-07-31T10:05:45;7.70;;;2.30;;
59093;SDS011;44880;52.814;18.270;2023-07-31T10:08:27;9.30;;;2.90;;
59093;SDS011;44880;52.814;18.270;2023-07-31T10:11:04;7.20;;;2.70;;
59093;SDS011;44880;52.814;18.270;2023-07-31T10:13:37;7.90;;;2.70;;
59093;SDS011;44880;52.814;18.270;2023-07-31T10:16:09;8.70;;;3.10;;
59093;SDS011;44880;52.814;18.270;2023-07-31T10:18:43;8.90;;;2.80;;
59093;SDS011;44880;52.814;18.270;2023-07-31T10:21:16;8.70;;;2.90;;
59093;SDS011;44880;52.814;18.270;2023-07-31T10:23:48;8.10;;;2.70;;
59093;SDS011;44880;52.814;18.270;2023-07-31T10:26:21;8.50;;;3.20;;
59093;SDS011;44880;52.814;18.270;2023-07-31T10:29:01;8.60;;;2.90;;
59093;SDS011;44880;52.814;18.270;2023-07-31T10:31:33;7.00;;;2.50;;
59093;SDS011;44880;52.814;18.270;2023-07-31T10:34:05;7.20;;;2.00;;
59093;SDS011;44880;52.814;18.270;2023-07-31T10:36:37;8.70;;;1.90;;
59093;SDS011;44880;52.814;18.270;2023-07-31T10:39:32;6.80;;;1.80;;
59093;SDS011;44880;52.814;18.270;2023-07-31T10:42:13;7.00;;;1.80;;
59093;SDS011;44880;52.814;18.270;2023-07-31T10:44:48;6.60;;;1.80;;
59093;SDS011;44880;52.814;18.270;2023-07-31T10:47:20;8.00;;;2.20;;
59093;SDS011;44880;52.814;18.270;2023-07-31T10:52:23;8.10;;;2.40;;
59093;SDS011;44880;52.814;18.270;2023-07-31T10:57:46;7.60;;;2.10;;
59093;SDS011;44880;52.814;18.270;2023-07-31T11:00:21;6.90;;;1.70;;
59093;SDS011;44880;52.814;18.270;2023-07-31T11:03:00;6.40;;;1.60;;
59093;SDS011;44880;52.814;18.270;2023-07-31T11:08:33;6.50;;;1.80;;
59093;SDS011;44880;52.814;18.270;2023-07-31T11:11:17;10.10;;;2.00;;
59093;SDS011;44880;52.814;18.270;2023-07-31T11:13:55;6.80;;;1.70;;
59093;SDS011;44880;52.814;18.270;2023-07-31T11:16:27;6.40;;;1.70;;
59093;SDS011;44880;52.814;18.270;2023-07-31T11:19:04;7.30;;;1.90;;
59093;SDS011;44880;52.814;18.270;2023-07-31T11:21:40;6.60;;;1.50;;
59093;SDS011;44880;52.814;18.270;2023-07-31T11:24:13;6.30;;;1.70;;
59093;SDS011;44880;52.814;18.270;2023-07-31T11:26:54;6.90;;;1.60;;
59093;SDS011;44880;52.814;18.270;2023-07-31T11:29:28;7.80;;;1.90;;
59093;SDS011;44880;52.814;18.270;2023-07-31T11:32:00;6.70;;;1.70;;
59093;SDS011;44880;52.814;18.270;2023-07-31T11:34:32;7.00;;;1.90;;
59093;SDS011;44880;52.814;18.270;2023-07-31T11:37:05;6.00;;;1.70;;
59093;SDS011;44880;52.814;18.270;2023-07-31T11:39:37;6.80;;;2.10;;
59093;SDS011;44880;52.814;18.270;2023-07-31T11:42:10;5.80;;;1.80;;
59093;SDS011;44880;52.814;18.270;2023-07-31T11:44:42;8.10;;;1.90;;
59093;SDS011;44880;52.814;18.270;2023-07-31T11:47:17;7.90;;;2.10;;
59093;SDS011;44880;52.814;18.270;2023-07-31T11:49:49;7.30;;;2.10;;
59093;SDS011;44880;52.814;18.270;2023-07-31T11:52:24;9.00;;;2.80;;
59093;SDS011;44880;52.814;18.270;2023-07-31T11:54:57;9.00;;;2.80;;
59093;SDS011;44880;52.814;18.270;2023-07-31T11:57:29;7.80;;;2.40;;
59093;SDS011;44880;52.814;18.270;2023-07-31T12:00:04;8.10;;;2.50;;
59093;SDS011;44880;52.814;18.270;2023-07-31T12:02:37;6.50;;;2.30;;
59093;SDS011;44880;52.814;18.270;2023-07-31T12:05:13;8.50;;;2.30;;
59093;SDS011;44880;52.814;18.270;2023-07-31T12:07:49;8.10;;;2.60;;
59093;SDS011;44880;52.814;18.270;2023-07-31T12:10:25;9.20;;;2.60;;
59093;SDS011;44880;52.814;18.270;2023-07-31T12:13:07;9.20;;;2.50;;
59093;SDS011;44880;52.814;18.270;2023-07-31T12:16:15;8.20;;;2.80;;
59093;SDS011;44880;52.814;18.270;2023-07-31T12:18:49;8.60;;;2.50;;
59093;SDS011;44880;52.814;18.270;2023-07-31T12:21:21;7.70;;;2.20;;
59093;SDS011;44880;52.814;18.270;2023-07-31T12:23:57;7.30;;;2.10;;
59093;SDS011;44880;52.814;18.270;2023-07-31T12:26:33;8.60;;;2.40;;
59093;SDS011;44880;52.814;18.270;2023-07-31T12:29:05;6.40;;;2.00;;
59093;SDS011;44880;52.814;18.270;2023-07-31T12:31:42;8.20;;;2.20;;
59093;SDS011;44880;52.814;18.270;2023-07-31T12:34:19;5.80;;;1.90;;
59093;SDS011;44880;52.814;18.270;2023-07-31T12:36:51;6.40;;;2.30;;
59093;SDS011;44880;52.814;18.270;2023-07-31T12:39:23;8.20;;;2.20;;
59093;SDS011;44880;52.814;18.270;2023-07-31T12:41:56;7.40;;;2.30;;
59093;SDS011;44880;52.814;18.270;2023-07-31T12:44:28;7.20;;;2.50;;
59093;SDS011;44880;52.814;18.270;2023-07-31T12:47:00;8.80;;;2.30;;
59093;SDS011;44880;52.814;18.270;2023-07-31T12:49:33;7.40;;;2.20;;
59093;SDS011;44880;52.814;18.270;2023-07-31T12:52:08;6.80;;;2.20;;
59093;SDS011;44880;52.814;18.270;2023-07-31T12:54:40;6.20;;;2.00;;
59093;SDS011;44880;52.814;18.270;2023-07-31T12:57:12;6.20;;;1.90;;
59093;SDS011;44880;52.814;18.270;2023-07-31T12:59:46;6.50;;;2.00;;
59093;SDS011;44880;52.814;18.270;2023-07-31T13:02:18;6.40;;;2.10;;
59093;SDS011;44880;52.814;18.270;2023-07-31T13:04:54;7.60;;;2.10;;
59093;SDS011;44880;52.814;18.270;2023-07-31T13:07:29;7.20;;;2.10;;
59093;SDS011;44880;52.814;18.270;2023-07-31T13:10:04;7.70;;;2.10;;
59093;SDS011;44880;52.814;18.270;2023-07-31T13:12:37;7.00;;;2.50;;
59093;SDS011;44880;52.814;18.270;2023-07-31T13:15:09;7.00;;;2.30;;
59093;SDS011;44880;52.814;18.270;2023-07-31T13:17:41;7.00;;;2.00;;
59093;SDS011;44880;52.814;18.270;2023-07-31T13:20:14;7.10;;;2.80;;
59093;SDS011;44880;52.814;18.270;2023-07-31T13:22:46;6.80;;;2.20;;
59093;SDS011;44880;52.814;18.270;2023-07-31T13:25:18;6.20;;;2.10;;
59093;SDS011;44880;52.814;18.270;2023-07-31T13:27:49;6.20;;;2.00;;
59093;SDS011;44880;52.814;18.270;2023-07-31T13:30:22;5.50;;;1.80;;
59093;SDS011;44880;52.814;18.270;2023-07-31T13:32:54;6.70;;;1.70;;
59093;SDS011;44880;52.814;18.270;2023-07-31T13:38:00;6.10;;;1.80;;
59093;SDS011;44880;52.814;18.270;2023-07-31T13:40:32;5.60;;;1.70;;
59093;SDS011;44880;52.814;18.270;2023-07-31T13:43:05;7.00;;;1.90;;
59093;SDS011;44880;52.814;18.270;2023-07-31T13:48:06;6.50;;;2.00;;
59093;SDS011;44880;52.814;18.270;2023-07-31T13:50:39;6.20;;;2.00;;
59093;SDS011;44880;52.814;18.270;2023-07-31T13:55:41;5.90;;;2.00;;
59093;SDS011;44880;52.814;18.270;2023-07-31T13:58:14;5.40;;;1.70;;
59093;SDS011;44880;52.814;18.270;2023-07-31T14:03:19;5.70;;;1.80;;
59093;SDS011;44880;52.814;18.270;2023-07-31T14:05:51;6.30;;;1.90;;
59093;SDS011;44880;52.814;18.270;2023-07-31T14:08:23;5.50;;;1.70;;
59093;SDS011;44880;52.814;18.270;2023-07-31T14:10:59;5.70;;;1.80;;
59093;SDS011;44880;52.814;18.270;2023-07-31T14:13:31;6.70;;;2.30;;
59093;SDS011;44880;52.814;18.270;2023-07-31T14:16:02;5.70;;;1.90;;
59093;SDS011;44880;52.814;18.270;2023-07-31T14:18:34;6.50;;;2.10;;
59093;SDS011;44880;52.814;18.270;2023-07-31T14:23:36;6.40;;;2.00;;
59093;SDS011;44880;52.814;18.270;2023-07-31T14:26:08;6.80;;;2.30;;
59093;SDS011;44880;52.814;18.270;2023-07-31T14:28:40;6.40;;;2.10;;
59093;SDS011;44880;52.814;18.270;2023-07-31T14:31:22;6.20;;;2.30;;
59093;SDS011;44880;52.814;18.270;2023-07-31T14:33:54;6.20;;;2.40;;
59093;SDS011;44880;52.814;18.270;2023-07-31T14:38:56;6.30;;;2.60;;
59093;SDS011;44880;52.814;18.270;2023-07-31T14:41:27;7.50;;;2.60;;
59093;SDS011;44880;52.814;18.270;2023-07-31T14:44:02;7.70;;;2.60;;
59093;SDS011;44880;52.814;18.270;2023-07-31T14:46:36;7.40;;;2.50;;
59093;SDS011;44880;52.814;18.270;2023-07-31T14:49:08;8.10;;;2.60;;
59093;SDS011;44880;52.814;18.270;2023-07-31T14:51:48;7.60;;;3.10;;
59093;SDS011;44880;52.814;18.270;2023-07-31T14:54:19;6.90;;;2.50;;
59093;SDS011;44880;52.814;18.270;2023-07-31T14:56:52;7.40;;;2.70;;
59093;SDS011;44880;52.814;18.270;2023-07-31T14:59:47;6.80;;;2.50;;
59093;SDS011;44880;52.814;18.270;2023-07-31T15:02:19;7.00;;;3.00;;
59093;SDS011;44880;52.814;18.270;2023-07-31T15:04:51;7.40;;;2.70;;
59093;SDS011;44880;52.814;18.270;2023-07-31T15:07:23;7.50;;;2.60;;
59093;SDS011;44880;52.814;18.270;2023-07-31T15:09:57;7.60;;;2.50;;
59093;SDS011;44880;52.814;18.270;2023-07-31T15:12:31;7.00;;;2.70;;
59093;SDS011;44880;52.814;18.270;2023-07-31T15:15:04;7.40;;;2.80;;
59093;SDS011;44880;52.814;18.270;2023-07-31T15:18:14;6.50;;;2.50;;
59093;SDS011;44880;52.814;18.270;2023-07-31T15:20:46;6.80;;;2.40;;
59093;SDS011;44880;52.814;18.270;2023-07-31T15:23:18;7.10;;;2.70;;
59093;SDS011;44880;52.814;18.270;2023-07-31T15:25:51;7.50;;;2.70;;
59093;SDS011;44880;52.814;18.270;2023-07-31T15:30:56;8.50;;;3.10;;
59093;SDS011;44880;52.814;18.270;2023-07-31T15:33:28;7.90;;;2.80;;
59093;SDS011;44880;52.814;18.270;2023-07-31T15:36:01;6.30;;;2.30;;
59093;SDS011;44880;52.814;18.270;2023-07-31T15:38:38;6.70;;;2.60;;
59093;SDS011;44880;52.814;18.270;2023-07-31T15:41:10;7.20;;;2.70;;
59093;SDS011;44880;52.814;18.270;2023-07-31T15:43:45;7.20;;;3.30;;
59093;SDS011;44880;52.814;18.270;2023-07-31T15:46:21;9.60;;;3.30;;
59093;SDS011;44880;52.814;18.270;2023-07-31T15:51:40;7.70;;;2.90;;
59093;SDS011;44880;52.814;18.270;2023-07-31T15:54:14;7.80;;;2.80;;
59093;SDS011;44880;52.814;18.270;2023-07-31T15:56:50;7.70;;;3.60;;
59093;SDS011;44880;52.814;18.270;2023-07-31T15:59:29;7.40;;;3.10;;
59093;SDS011;44880;52.814;18.270;2023-07-31T16:02:02;7.90;;;3.40;;
59093;SDS011;44880;52.814;18.270;2023-07-31T16:04:34;7.30;;;3.10;;
59093;SDS011;44880;52.814;18.270;2023-07-31T16:07:23;8.70;;;2.90;;
59093;SDS011;44880;52.814;18.270;2023-07-31T16:09:56;8.20;;;3.50;;
59093;SDS011;44880;52.814;18.270;2023-07-31T16:12:28;7.90;;;3.00;;
59093;SDS011;44880;52.814;18.270;2023-07-31T16:15:03;8.20;;;3.10;;
59093;SDS011;44880;52.814;18.270;2023-07-31T16:17:39;8.00;;;2.70;;